sensor_id;sensor_type;location;lat;lon;timestamp;P1;durP1;ratioP1;P2;durP2;ratioP2
52962;SDS011;38827;53.024;6.596;2023-07-09T00:09:58;9.35;;;6.15;;
52962;SDS011;38827;53.024;6.596;2023-07-09T00:12:58;8.27;;;6.55;;
52962;SDS011;38827;53.024;6.596;2023-07-09T00:15:42;9.30;;;7.00;;
52962;SDS011;38827;53.024;6.596;2023-07-09T00:18:15;11.35;;;7.47;;
52962;SDS011;38827;53.024;6.596;2023-07-09T00:21:07;8.75;;;6.22;;
52962;SDS011;38827;53.024;6.596;2023-07-09T00:23:55;8.23;;;6.53;;
52962;SDS011;38827;53.024;6.596;2023-07-09T00:26:29;9.80;;;6.93;;
52962;SDS011;38827;53.024;6.596;2023-07-09T00:29:18;7.53;;;6.50;;
52962;SDS011;38827;53.024;6.596;2023-07-09T00:31:52;8.37;;;6.70;;
52962;SDS011;38827;53.024;6.596;2023-07-09T00:34:18;7.28;;;5.78;;
52962;SDS011;38827;53.024;6.596;2023-07-09T00:36:52;8.45;;;6.15;;
52962;SDS011;38827;53.024;6.596;2023-07-09T00:39:22;8.00;;;5.90;;
52962;SDS011;38827;53.024;6.596;2023-07-09T00:42:24;8.10;;;6.80;;
52962;SDS011;38827;53.024;6.596;2023-07-09T00:45:13;11.35;;;6.97;;
52962;SDS011;38827;53.024;6.596;2023-07-09T00:48:06;12.43;;;7.75;;
52962;SDS011;38827;53.024;6.596;2023-07-09T00:51:20;10.20;;;7.28;;
52962;SDS011;38827;53.024;6.596;2023-07-09T00:53:55;10.70;;;7.75;;
52962;SDS011;38827;53.024;6.596;2023-07-09T00:56:48;8.07;;;6.07;;
52962;SDS011;38827;53.024;6.596;2023-07-09T00:59:19;8.50;;;6.60;;
52962;SDS011;38827;53.024;6.596;2023-07-09T01:02:45;14.18;;;7.22;;
52962;SDS011;38827;53.024;6.596;2023-07-09T01:08:31;9.32;;;7.25;;
52962;SDS011;38827;53.024;6.596;2023-07-09T01:10:58;10.63;;;7.65;;
52962;SDS011;38827;53.024;6.596;2023-07-09T01:13:24;10.43;;;7.27;;
52962;SDS011;38827;53.024;6.596;2023-07-09T01:15:52;12.15;;;7.68;;
52962;SDS011;38827;53.024;6.596;2023-07-09T01:18:18;11.30;;;7.63;;
52962;SDS011;38827;53.024;6.596;2023-07-09T01:20:55;11.50;;;7.82;;
52962;SDS011;38827;53.024;6.596;2023-07-09T01:23:27;11.77;;;7.20;;
52962;SDS011;38827;53.024;6.596;2023-07-09T01:25:53;10.70;;;7.53;;
52962;SDS011;38827;53.024;6.596;2023-07-09T01:28:19;13.43;;;6.30;;
52962;SDS011;38827;53.024;6.596;2023-07-09T01:30:45;10.07;;;7.60;;
52962;SDS011;38827;53.024;6.596;2023-07-09T01:33:17;12.65;;;7.57;;
52962;SDS011;38827;53.024;6.596;2023-07-09T01:35:42;10.03;;;7.43;;
52962;SDS011;38827;53.024;6.596;2023-07-09T01:38:09;11.40;;;7.68;;
52962;SDS011;38827;53.024;6.596;2023-07-09T01:40:35;8.47;;;7.47;;
52962;SDS011;38827;53.024;6.596;2023-07-09T01:43:04;11.15;;;7.82;;
52962;SDS011;38827;53.024;6.596;2023-07-09T01:45:31;10.35;;;7.78;;
52962;SDS011;38827;53.024;6.596;2023-07-09T01:48:01;9.05;;;6.63;;
52962;SDS011;38827;53.024;6.596;2023-07-09T01:50:27;11.10;;;7.93;;
52962;SDS011;38827;53.024;6.596;2023-07-09T01:52:53;9.48;;;7.47;;
52962;SDS011;38827;53.024;6.596;2023-07-09T01:55:19;10.18;;;8.30;;
52962;SDS011;38827;53.024;6.596;2023-07-09T01:57:45;13.45;;;7.90;;
52962;SDS011;38827;53.024;6.596;2023-07-09T02:00:13;9.45;;;7.43;;
52962;SDS011;38827;53.024;6.596;2023-07-09T02:02:45;10.88;;;7.28;;
52962;SDS011;38827;53.024;6.596;2023-07-09T02:05:12;10.55;;;7.30;;
52962;SDS011;38827;53.024;6.596;2023-07-09T02:07:42;11.23;;;7.47;;
52962;SDS011;38827;53.024;6.596;2023-07-09T02:10:11;9.55;;;8.07;;
52962;SDS011;38827;53.024;6.596;2023-07-09T02:12:39;9.45;;;7.40;;
52962;SDS011;38827;53.024;6.596;2023-07-09T02:15:05;11.43;;;7.70;;
52962;SDS011;38827;53.024;6.596;2023-07-09T02:17:31;12.00;;;7.78;;
52962;SDS011;38827;53.024;6.596;2023-07-09T02:20:01;12.52;;;7.97;;
52962;SDS011;38827;53.024;6.596;2023-07-09T02:22:29;10.68;;;8.13;;
52962;SDS011;38827;53.024;6.596;2023-07-09T02:24:55;11.83;;;7.50;;
52962;SDS011;38827;53.024;6.596;2023-07-09T02:27:21;10.38;;;7.15;;
52962;SDS011;38827;53.024;6.596;2023-07-09T02:29:47;9.43;;;7.72;;
52962;SDS011;38827;53.024;6.596;2023-07-09T02:32:23;11.23;;;8.30;;
52962;SDS011;38827;53.024;6.596;2023-07-09T02:34:53;10.18;;;8.10;;
52962;SDS011;38827;53.024;6.596;2023-07-09T02:37:20;11.80;;;7.80;;
52962;SDS011;38827;53.024;6.596;2023-07-09T02:39:47;10.43;;;7.80;;
52962;SDS011;38827;53.024;6.596;2023-07-09T02:42:14;10.87;;;7.30;;
52962;SDS011;38827;53.024;6.596;2023-07-09T02:44:41;13.73;;;7.47;;
52962;SDS011;38827;53.024;6.596;2023-07-09T02:47:08;10.45;;;7.63;;
52962;SDS011;38827;53.024;6.596;2023-07-09T02:49:33;10.75;;;8.23;;
52962;SDS011;38827;53.024;6.596;2023-07-09T02:51:59;9.97;;;7.53;;
52962;SDS011;38827;53.024;6.596;2023-07-09T02:54:25;8.60;;;6.40;;
52962;SDS011;38827;53.024;6.596;2023-07-09T02:56:51;8.97;;;6.43;;
52962;SDS011;38827;53.024;6.596;2023-07-09T02:59:17;9.82;;;6.45;;
52962;SDS011;38827;53.024;6.596;2023-07-09T03:01:46;9.93;;;6.55;;
52962;SDS011;38827;53.024;6.596;2023-07-09T03:04:12;8.82;;;7.38;;
52962;SDS011;38827;53.024;6.596;2023-07-09T03:06:39;10.63;;;8.55;;
52962;SDS011;38827;53.024;6.596;2023-07-09T03:09:05;11.73;;;7.97;;
52962;SDS011;38827;53.024;6.596;2023-07-09T03:11:33;8.80;;;7.25;;
52962;SDS011;38827;53.024;6.596;2023-07-09T03:14:00;11.10;;;7.60;;
52962;SDS011;38827;53.024;6.596;2023-07-09T03:16:27;11.95;;;8.20;;
52962;SDS011;38827;53.024;6.596;2023-07-09T03:18:54;13.13;;;8.35;;
52962;SDS011;38827;53.024;6.596;2023-07-09T03:21:21;11.57;;;7.60;;
52962;SDS011;38827;53.024;6.596;2023-07-09T03:23:47;9.45;;;7.72;;
52962;SDS011;38827;53.024;6.596;2023-07-09T03:26:13;8.68;;;7.05;;
52962;SDS011;38827;53.024;6.596;2023-07-09T03:31:05;11.77;;;7.23;;
52962;SDS011;38827;53.024;6.596;2023-07-09T03:33:31;11.73;;;7.55;;
52962;SDS011;38827;53.024;6.596;2023-07-09T03:35:56;11.02;;;7.30;;
52962;SDS011;38827;53.024;6.596;2023-07-09T03:38:22;10.52;;;7.50;;
52962;SDS011;38827;53.024;6.596;2023-07-09T03:40:51;8.25;;;6.65;;
52962;SDS011;38827;53.024;6.596;2023-07-09T03:45:43;8.50;;;7.10;;
52962;SDS011;38827;53.024;6.596;2023-07-09T03:48:11;10.30;;;6.90;;
52962;SDS011;38827;53.024;6.596;2023-07-09T03:50:38;8.38;;;7.18;;
52962;SDS011;38827;53.024;6.596;2023-07-09T03:53:03;8.47;;;5.83;;
52962;SDS011;38827;53.024;6.596;2023-07-09T03:55:31;11.25;;;7.38;;
52962;SDS011;38827;53.024;6.596;2023-07-09T03:58:00;10.05;;;7.20;;
52962;SDS011;38827;53.024;6.596;2023-07-09T04:00:28;9.57;;;7.43;;
52962;SDS011;38827;53.024;6.596;2023-07-09T04:02:54;8.15;;;6.78;;
52962;SDS011;38827;53.024;6.596;2023-07-09T04:10:13;9.80;;;7.63;;
52962;SDS011;38827;53.024;6.596;2023-07-09T04:12:39;7.50;;;6.30;;
52962;SDS011;38827;53.024;6.596;2023-07-09T04:15:06;8.88;;;7.50;;
52962;SDS011;38827;53.024;6.596;2023-07-09T04:17:36;8.10;;;7.07;;
52962;SDS011;38827;53.024;6.596;2023-07-09T04:20:02;8.98;;;6.78;;
52962;SDS011;38827;53.024;6.596;2023-07-09T04:26:01;9.32;;;7.20;;
52962;SDS011;38827;53.024;6.596;2023-07-09T04:28:30;12.75;;;7.18;;
52962;SDS011;38827;53.024;6.596;2023-07-09T04:31:02;7.97;;;6.90;;
52962;SDS011;38827;53.024;6.596;2023-07-09T04:33:34;9.30;;;6.90;;
52962;SDS011;38827;53.024;6.596;2023-07-09T04:36:09;8.98;;;6.60;;
52962;SDS011;38827;53.024;6.596;2023-07-09T04:38:37;8.98;;;7.20;;
52962;SDS011;38827;53.024;6.596;2023-07-09T04:41:03;10.77;;;6.70;;
52962;SDS011;38827;53.024;6.596;2023-07-09T04:43:29;9.27;;;6.80;;
52962;SDS011;38827;53.024;6.596;2023-07-09T04:46:14;10.15;;;6.03;;
52962;SDS011;38827;53.024;6.596;2023-07-09T04:48:55;9.38;;;6.35;;
52962;SDS011;38827;53.024;6.596;2023-07-09T04:51:21;7.05;;;5.95;;
52962;SDS011;38827;53.024;6.596;2023-07-09T04:53:46;9.13;;;6.77;;
52962;SDS011;38827;53.024;6.596;2023-07-09T04:56:27;9.05;;;6.63;;
52962;SDS011;38827;53.024;6.596;2023-07-09T04:58:55;12.23;;;7.63;;
52962;SDS011;38827;53.024;6.596;2023-07-09T05:01:56;9.95;;;7.03;;
52962;SDS011;38827;53.024;6.596;2023-07-09T05:07:47;8.68;;;6.88;;
52962;SDS011;38827;53.024;6.596;2023-07-09T05:10:15;10.60;;;7.15;;
52962;SDS011;38827;53.024;6.596;2023-07-09T05:15:39;8.55;;;5.97;;
52962;SDS011;38827;53.024;6.596;2023-07-09T05:18:26;8.82;;;6.47;;
52962;SDS011;38827;53.024;6.596;2023-07-09T05:21:04;9.00;;;5.70;;
52962;SDS011;38827;53.024;6.596;2023-07-09T05:23:30;6.65;;;5.75;;
52962;SDS011;38827;53.024;6.596;2023-07-09T05:26:14;9.00;;;5.83;;
52962;SDS011;38827;53.024;6.596;2023-07-09T05:28:40;10.65;;;6.63;;
52962;SDS011;38827;53.024;6.596;2023-07-09T05:31:08;8.30;;;6.10;;
52962;SDS011;38827;53.024;6.596;2023-07-09T05:36:46;9.20;;;5.63;;
52962;SDS011;38827;53.024;6.596;2023-07-09T05:39:12;10.87;;;6.67;;
52962;SDS011;38827;53.024;6.596;2023-07-09T05:41:50;10.33;;;6.20;;
52962;SDS011;38827;53.024;6.596;2023-07-09T05:44:24;12.65;;;7.20;;
52962;SDS011;38827;53.024;6.596;2023-07-09T05:46:59;10.02;;;5.95;;
52962;SDS011;38827;53.024;6.596;2023-07-09T05:49:43;9.80;;;5.65;;
52962;SDS011;38827;53.024;6.596;2023-07-09T05:52:20;10.55;;;7.85;;
52962;SDS011;38827;53.024;6.596;2023-07-09T05:54:59;10.30;;;7.25;;
52962;SDS011;38827;53.024;6.596;2023-07-09T05:57:28;9.85;;;6.03;;
52962;SDS011;38827;53.024;6.596;2023-07-09T05:59:56;7.13;;;5.72;;
52962;SDS011;38827;53.024;6.596;2023-07-09T06:02:24;9.98;;;6.45;;
52962;SDS011;38827;53.024;6.596;2023-07-09T06:07:57;8.20;;;5.72;;
52962;SDS011;38827;53.024;6.596;2023-07-09T06:10:26;12.00;;;6.80;;
52962;SDS011;38827;53.024;6.596;2023-07-09T06:13:06;8.15;;;6.07;;
52962;SDS011;38827;53.024;6.596;2023-07-09T06:18:29;10.85;;;7.40;;
52962;SDS011;38827;53.024;6.596;2023-07-09T06:20:57;7.15;;;5.97;;
52962;SDS011;38827;53.024;6.596;2023-07-09T06:23:41;8.05;;;6.50;;
52962;SDS011;38827;53.024;6.596;2023-07-09T06:26:10;7.43;;;6.22;;
52962;SDS011;38827;53.024;6.596;2023-07-09T06:28:35;10.07;;;6.65;;
52962;SDS011;38827;53.024;6.596;2023-07-09T06:41:22;12.18;;;7.93;;
52962;SDS011;38827;53.024;6.596;2023-07-09T06:43:57;15.25;;;7.85;;
52962;SDS011;38827;53.024;6.596;2023-07-09T06:49:36;8.68;;;6.45;;
52962;SDS011;38827;53.024;6.596;2023-07-09T07:08:33;11.65;;;8.30;;
52962;SDS011;38827;53.024;6.596;2023-07-09T07:11:14;8.45;;;6.93;;
52962;SDS011;38827;53.024;6.596;2023-07-09T07:13:42;9.95;;;7.90;;
52962;SDS011;38827;53.024;6.596;2023-07-09T07:16:17;12.95;;;9.00;;
52962;SDS011;38827;53.024;6.596;2023-07-09T07:18:58;10.57;;;8.40;;
52962;SDS011;38827;53.024;6.596;2023-07-09T07:21:36;11.80;;;7.90;;
52962;SDS011;38827;53.024;6.596;2023-07-09T07:24:05;11.00;;;6.93;;
52962;SDS011;38827;53.024;6.596;2023-07-09T07:56:15;10.82;;;7.13;;
52962;SDS011;38827;53.024;6.596;2023-07-09T07:58:50;9.30;;;7.03;;
52962;SDS011;38827;53.024;6.596;2023-07-09T08:27:45;9.88;;;6.18;;
52962;SDS011;38827;53.024;6.596;2023-07-09T08:33:51;12.63;;;7.07;;
52962;SDS011;38827;53.024;6.596;2023-07-09T08:36:16;13.18;;;6.13;;
52962;SDS011;38827;53.024;6.596;2023-07-09T08:38:55;12.55;;;7.03;;
52962;SDS011;38827;53.024;6.596;2023-07-09T08:54:04;22.58;;;9.68;;
52962;SDS011;38827;53.024;6.596;2023-07-09T09:00:13;17.48;;;7.97;;
52962;SDS011;38827;53.024;6.596;2023-07-09T09:03:26;12.50;;;7.18;;
52962;SDS011;38827;53.024;6.596;2023-07-09T09:06:31;18.03;;;7.60;;
52962;SDS011;38827;53.024;6.596;2023-07-09T09:17:50;8.75;;;6.18;;
52962;SDS011;38827;53.024;6.596;2023-07-09T09:20:20;8.93;;;6.13;;
52962;SDS011;38827;53.024;6.596;2023-07-09T09:35:28;11.18;;;5.82;;
52962;SDS011;38827;53.024;6.596;2023-07-09T09:38:19;10.13;;;5.93;;
52962;SDS011;38827;53.024;6.596;2023-07-09T09:44:43;8.88;;;5.78;;
52962;SDS011;38827;53.024;6.596;2023-07-09T09:47:12;10.65;;;6.72;;
52962;SDS011;38827;53.024;6.596;2023-07-09T09:49:44;9.38;;;6.35;;
52962;SDS011;38827;53.024;6.596;2023-07-09T10:05:32;13.68;;;7.35;;
52962;SDS011;38827;53.024;6.596;2023-07-09T10:12:07;10.27;;;6.60;;
52962;SDS011;38827;53.024;6.596;2023-07-09T10:15:17;5.95;;;5.03;;
52962;SDS011;38827;53.024;6.596;2023-07-09T10:19:18;10.80;;;6.45;;
52962;SDS011;38827;53.024;6.596;2023-07-09T10:22:15;6.32;;;5.15;;
52962;SDS011;38827;53.024;6.596;2023-07-09T10:24:58;7.35;;;5.25;;
52962;SDS011;38827;53.024;6.596;2023-07-09T10:30:19;10.98;;;6.38;;
52962;SDS011;38827;53.024;6.596;2023-07-09T10:33:10;7.20;;;5.30;;
52962;SDS011;38827;53.024;6.596;2023-07-09T10:40:59;12.57;;;6.72;;
52962;SDS011;38827;53.024;6.596;2023-07-09T10:46:10;10.10;;;6.35;;
52962;SDS011;38827;53.024;6.596;2023-07-09T10:48:52;11.20;;;6.15;;
52962;SDS011;38827;53.024;6.596;2023-07-09T10:51:23;7.63;;;5.65;;
52962;SDS011;38827;53.024;6.596;2023-07-09T10:53:58;8.30;;;5.90;;
52962;SDS011;38827;53.024;6.596;2023-07-09T10:56:31;7.53;;;5.70;;
52962;SDS011;38827;53.024;6.596;2023-07-09T10:59:03;8.20;;;5.60;;
52962;SDS011;38827;53.024;6.596;2023-07-09T11:01:54;9.02;;;6.80;;
52962;SDS011;38827;53.024;6.596;2023-07-09T11:04:31;7.93;;;6.13;;
52962;SDS011;38827;53.024;6.596;2023-07-09T11:07:03;7.65;;;5.60;;
52962;SDS011;38827;53.024;6.596;2023-07-09T11:09:35;9.35;;;6.18;;
52962;SDS011;38827;53.024;6.596;2023-07-09T11:12:20;7.00;;;5.65;;
52962;SDS011;38827;53.024;6.596;2023-07-09T11:14:53;6.45;;;5.40;;
52962;SDS011;38827;53.024;6.596;2023-07-09T11:17:24;8.88;;;5.60;;
52962;SDS011;38827;53.024;6.596;2023-07-09T11:19:54;10.20;;;6.55;;
52962;SDS011;38827;53.024;6.596;2023-07-09T11:22:38;9.13;;;5.80;;
52962;SDS011;38827;53.024;6.596;2023-07-09T11:27:51;8.57;;;6.25;;
52962;SDS011;38827;53.024;6.596;2023-07-09T11:30:23;6.43;;;5.38;;
52962;SDS011;38827;53.024;6.596;2023-07-09T11:33:15;7.57;;;5.53;;
52962;SDS011;38827;53.024;6.596;2023-07-09T11:35:49;6.03;;;5.00;;
52962;SDS011;38827;53.024;6.596;2023-07-09T11:38:22;8.25;;;5.63;;
52962;SDS011;38827;53.024;6.596;2023-07-09T11:40:53;9.95;;;5.70;;
52962;SDS011;38827;53.024;6.596;2023-07-09T11:43:33;6.70;;;5.38;;
52962;SDS011;38827;53.024;6.596;2023-07-09T11:46:06;8.93;;;5.78;;
52962;SDS011;38827;53.024;6.596;2023-07-09T11:48:40;6.82;;;5.30;;
52962;SDS011;38827;53.024;6.596;2023-07-09T11:54:18;6.85;;;5.10;;
52962;SDS011;38827;53.024;6.596;2023-07-09T11:56:56;8.48;;;5.10;;
52962;SDS011;38827;53.024;6.596;2023-07-09T11:59:24;7.53;;;5.00;;
52962;SDS011;38827;53.024;6.596;2023-07-09T12:01:50;5.78;;;5.00;;
52962;SDS011;38827;53.024;6.596;2023-07-09T12:04:19;6.70;;;5.10;;
52962;SDS011;38827;53.024;6.596;2023-07-09T12:06:48;6.93;;;5.22;;
52962;SDS011;38827;53.024;6.596;2023-07-09T12:09:17;6.85;;;4.97;;
52962;SDS011;38827;53.024;6.596;2023-07-09T12:15:39;6.80;;;5.20;;
52962;SDS011;38827;53.024;6.596;2023-07-09T12:30:35;5.50;;;4.70;;
52962;SDS011;38827;53.024;6.596;2023-07-09T12:33:12;8.07;;;4.65;;
52962;SDS011;38827;53.024;6.596;2023-07-09T12:36:43;9.20;;;5.18;;
52962;SDS011;38827;53.024;6.596;2023-07-09T12:42:35;6.85;;;4.47;;
52962;SDS011;38827;53.024;6.596;2023-07-09T12:45:32;10.23;;;4.72;;
52962;SDS011;38827;53.024;6.596;2023-07-09T12:51:35;6.80;;;4.70;;
52962;SDS011;38827;53.024;6.596;2023-07-09T12:54:18;5.28;;;4.53;;
52962;SDS011;38827;53.024;6.596;2023-07-09T12:57:13;7.20;;;4.32;;
52962;SDS011;38827;53.024;6.596;2023-07-09T13:00:13;16.80;;;6.53;;
52962;SDS011;38827;53.024;6.596;2023-07-09T13:02:41;7.57;;;4.57;;
52962;SDS011;38827;53.024;6.596;2023-07-09T13:05:27;8.48;;;4.90;;
52962;SDS011;38827;53.024;6.596;2023-07-09T13:08:01;7.45;;;4.55;;
52962;SDS011;38827;53.024;6.596;2023-07-09T13:10:42;5.68;;;4.30;;
52962;SDS011;38827;53.024;6.596;2023-07-09T13:19:42;7.82;;;4.10;;
52962;SDS011;38827;53.024;6.596;2023-07-09T13:22:14;6.20;;;3.90;;
52962;SDS011;38827;53.024;6.596;2023-07-09T13:24:57;4.35;;;3.40;;
52962;SDS011;38827;53.024;6.596;2023-07-09T13:30:26;8.13;;;4.47;;
52962;SDS011;38827;53.024;6.596;2023-07-09T13:33:10;5.75;;;3.58;;
52962;SDS011;38827;53.024;6.596;2023-07-09T13:35:54;6.07;;;3.92;;
52962;SDS011;38827;53.024;6.596;2023-07-09T13:41:25;6.68;;;3.55;;
52962;SDS011;38827;53.024;6.596;2023-07-09T13:43:51;4.75;;;3.70;;
52962;SDS011;38827;53.024;6.596;2023-07-09T13:46:17;5.70;;;4.07;;
52962;SDS011;38827;53.024;6.596;2023-07-09T13:48:55;5.50;;;4.15;;
52962;SDS011;38827;53.024;6.596;2023-07-09T14:04:42;7.05;;;4.15;;
52962;SDS011;38827;53.024;6.596;2023-07-09T14:07:23;6.50;;;3.90;;
52962;SDS011;38827;53.024;6.596;2023-07-09T14:10:34;5.95;;;3.60;;
52962;SDS011;38827;53.024;6.596;2023-07-09T14:13:12;5.82;;;4.20;;
52962;SDS011;38827;53.024;6.596;2023-07-09T14:19:48;6.43;;;3.97;;
52962;SDS011;38827;53.024;6.596;2023-07-09T14:22:35;7.88;;;4.47;;
52962;SDS011;38827;53.024;6.596;2023-07-09T14:25:16;6.20;;;4.22;;
52962;SDS011;38827;53.024;6.596;2023-07-09T14:37:28;4.38;;;3.97;;
52962;SDS011;38827;53.024;6.596;2023-07-09T14:40:09;5.68;;;4.25;;
52962;SDS011;38827;53.024;6.596;2023-07-09T14:42:54;5.57;;;4.05;;
52962;SDS011;38827;53.024;6.596;2023-07-09T14:49:01;7.25;;;4.80;;
52962;SDS011;38827;53.024;6.596;2023-07-09T14:55:08;9.48;;;4.40;;
52962;SDS011;38827;53.024;6.596;2023-07-09T14:58:00;6.13;;;4.03;;
52962;SDS011;38827;53.024;6.596;2023-07-09T15:00:35;6.53;;;4.80;;
52962;SDS011;38827;53.024;6.596;2023-07-09T15:06:07;7.60;;;4.63;;
52962;SDS011;38827;53.024;6.596;2023-07-09T15:14:21;5.85;;;4.10;;
52962;SDS011;38827;53.024;6.596;2023-07-09T15:19:46;7.55;;;4.68;;
52962;SDS011;38827;53.024;6.596;2023-07-09T15:22:22;7.17;;;4.60;;
52962;SDS011;38827;53.024;6.596;2023-07-09T15:24:54;10.38;;;5.32;;
52962;SDS011;38827;53.024;6.596;2023-07-09T15:30:23;8.43;;;5.00;;
52962;SDS011;38827;53.024;6.596;2023-07-09T15:32:50;8.73;;;4.55;;
52962;SDS011;38827;53.024;6.596;2023-07-09T15:35:17;10.75;;;4.60;;
52962;SDS011;38827;53.024;6.596;2023-07-09T15:37:44;11.52;;;4.60;;
52962;SDS011;38827;53.024;6.596;2023-07-09T15:43:27;23.58;;;6.78;;
52962;SDS011;38827;53.024;6.596;2023-07-09T15:45:59;14.65;;;5.72;;
52962;SDS011;38827;53.024;6.596;2023-07-09T15:48:32;8.43;;;4.63;;
52962;SDS011;38827;53.024;6.596;2023-07-09T15:51:05;10.90;;;5.40;;
52962;SDS011;38827;53.024;6.596;2023-07-09T15:53:31;11.27;;;4.72;;
52962;SDS011;38827;53.024;6.596;2023-07-09T15:58:51;6.05;;;4.25;;
52962;SDS011;38827;53.024;6.596;2023-07-09T16:01:18;9.32;;;4.60;;
52962;SDS011;38827;53.024;6.596;2023-07-09T16:04:07;9.18;;;4.30;;
52962;SDS011;38827;53.024;6.596;2023-07-09T16:06:56;6.97;;;3.92;;
52962;SDS011;38827;53.024;6.596;2023-07-09T16:09:34;6.30;;;4.30;;
52962;SDS011;38827;53.024;6.596;2023-07-09T16:12:18;7.70;;;4.18;;
52962;SDS011;38827;53.024;6.596;2023-07-09T16:14:52;8.90;;;3.95;;
52962;SDS011;38827;53.024;6.596;2023-07-09T16:17:20;8.88;;;4.10;;
52962;SDS011;38827;53.024;6.596;2023-07-09T16:19:46;7.65;;;4.07;;
52962;SDS011;38827;53.024;6.596;2023-07-09T16:22:21;7.27;;;4.40;;
52962;SDS011;38827;53.024;6.596;2023-07-09T16:45:16;8.25;;;4.63;;
52962;SDS011;38827;53.024;6.596;2023-07-09T16:54:09;7.35;;;4.32;;
52962;SDS011;38827;53.024;6.596;2023-07-09T16:57:56;8.05;;;4.60;;
52962;SDS011;38827;53.024;6.596;2023-07-09T17:00:54;6.22;;;3.92;;
52962;SDS011;38827;53.024;6.596;2023-07-09T17:17:57;8.52;;;3.70;;
52962;SDS011;38827;53.024;6.596;2023-07-09T17:20:29;6.00;;;4.00;;
52962;SDS011;38827;53.024;6.596;2023-07-09T17:23:14;7.03;;;4.07;;
52962;SDS011;38827;53.024;6.596;2023-07-09T17:43:58;6.45;;;4.10;;
52962;SDS011;38827;53.024;6.596;2023-07-09T17:46:58;7.47;;;4.30;;
52962;SDS011;38827;53.024;6.596;2023-07-09T17:53:39;5.68;;;3.63;;
52962;SDS011;38827;53.024;6.596;2023-07-09T18:02:01;9.30;;;3.90;;
52962;SDS011;38827;53.024;6.596;2023-07-09T18:08:32;5.63;;;3.03;;
52962;SDS011;38827;53.024;6.596;2023-07-09T18:14:11;5.93;;;3.72;;
52962;SDS011;38827;53.024;6.596;2023-07-09T18:17:38;5.10;;;3.30;;
52962;SDS011;38827;53.024;6.596;2023-07-09T18:23:51;6.75;;;3.17;;
52962;SDS011;38827;53.024;6.596;2023-07-09T19:26:18;7.63;;;3.30;;
52962;SDS011;38827;53.024;6.596;2023-07-09T19:38:12;13.82;;;5.63;;
52962;SDS011;38827;53.024;6.596;2023-07-09T19:41:07;12.93;;;5.03;;
52962;SDS011;38827;53.024;6.596;2023-07-09T21:25:42;19.60;;;7.80;;
52962;SDS011;38827;53.024;6.596;2023-07-09T21:28:38;23.42;;;7.10;;
52962;SDS011;38827;53.024;6.596;2023-07-09T21:31:30;18.00;;;7.38;;
52962;SDS011;38827;53.024;6.596;2023-07-09T22:49:57;16.90;;;6.05;;
52962;SDS011;38827;53.024;6.596;2023-07-09T22:58:08;15.60;;;6.28;;
52962;SDS011;38827;53.024;6.596;2023-07-09T23:37:56;15.23;;;7.63;;
52962;SDS011;38827;53.024;6.596;2023-07-09T23:44:55;17.00;;;7.70;;
52962;SDS011;38827;53.024;6.596;2023-07-09T23:55:53;14.18;;;6.18;;
